Time;durP1;ratioP1;P1;durP2;ratioP2;P2;SDS_P1;SDS_P2;PMS_P1;PMS_P2;Temp;Humidity;BMP_temperature;BMP_pressure;BME280_temperature;BME280_humidity;BME280_pressure;Samples;Min_cycle;Max_cycle;Signal;HPM_P1;HPM_P2
2024/01/06 00:01:46;;;;;;;;;0.50;0.00;;;;;9.59;65.35;99942.97;5119658;27;45362;-71
2024/01/06 00:04:12;;;;;;;;;0.00;0.00;;;;;9.47;64.87;99927.00;5119760;27;45499;-71
2024/01/06 00:06:37;;;;;;;;;0.00;0.00;;;;;9.53;64.70;99937.59;5119328;27;45453;-71
2024/01/06 00:09:03;;;;;;;;;0.00;0.00;;;;;9.48;64.88;99936.59;5119601;27;45285;-71
2024/01/06 00:11:28;;;;;;;;;0.00;0.00;;;;;9.34;64.73;99926.69;5119029;27;45562;-71
2024/01/06 00:13:54;;;;;;;;;0.00;0.00;;;;;9.42;65.17;99945.13;5119419;27;45427;-71
2024/01/06 00:16:20;;;;;;;;;0.00;0.00;;;;;9.39;65.68;99950.28;5119113;27;45301;-71
2024/01/06 00:18:47;;;;;;;;;0.00;0.00;;;;;9.40;65.16;99959.00;5119410;27;45477;-71
2024/01/06 00:21:12;;;;;;;;;0.00;0.00;;;;;9.42;65.13;99963.41;5119471;27;45731;-71
2024/01/06 00:23:40;;;;;;;;;0.00;0.00;;;;;9.45;65.39;99960.88;5119177;27;45368;-72
2024/01/06 00:26:07;;;;;;;;;0.00;0.00;;;;;9.43;65.05;99966.88;5116675;27;46143;-71
2024/01/06 00:28:32;;;;;;;;;0.00;0.00;;;;;9.47;65.06;99967.00;5119384;27;45558;-71
2024/01/06 00:30:58;;;;;;;;;0.00;0.00;;;;;9.51;65.07;99970.56;5119142;27;45422;-71
2024/01/06 00:33:23;;;;;;;;;0.00;0.00;;;;;9.51;65.48;99983.59;5119130;27;45496;-71
2024/01/06 00:35:49;;;;;;;;;0.00;0.00;;;;;9.52;65.56;99982.75;5118979;27;45996;-71
2024/01/06 00:38:15;;;;;;;;;0.00;0.00;;;;;9.59;65.75;99989.91;5118858;27;45446;-71
2024/01/06 00:40:40;;;;;;;;;0.00;0.00;;;;;9.60;65.82;99981.22;5118847;27;45481;-72
2024/01/06 00:43:06;;;;;;;;;0.00;0.00;;;;;9.46;65.63;99940.91;5119448;27;45538;-71
2024/01/06 00:45:31;;;;;;;;;0.00;0.00;;;;;9.58;65.85;99961.19;5118983;27;46110;-71
2024/01/06 00:47:57;;;;;;;;;0.00;0.00;;;;;9.64;65.62;99964.81;5118833;27;45520;-71
2024/01/06 00:50:23;;;;;;;;;0.00;0.00;;;;;9.66;65.77;99960.50;5118765;27;45273;-71
2024/01/06 00:52:52;;;;;;;;;0.00;0.00;;;;;9.65;65.78;99948.31;5118973;27;45356;-72
2024/01/06 00:55:21;;;;;;;;;0.00;0.00;;;;;9.66;65.50;99943.97;5118495;27;45373;-71
2024/01/06 00:57:46;;;;;;;;;0.00;0.00;;;;;9.63;65.55;99943.88;5116018;27;45183;-71
2024/01/06 01:00:12;;;;;;;;;0.00;0.00;;;;;9.27;65.20;99882.19;5118805;27;45322;-71
2024/01/06 01:02:39;;;;;;;;;0.00;0.00;;;;;9.58;65.41;99935.09;5118755;27;45346;-70
2024/01/06 01:05:07;;;;;;;;;0.00;0.00;;;;;9.65;65.21;99948.31;5118650;27;45471;-71
2024/01/06 01:07:32;;;;;;;;;0.00;0.00;;;;;9.44;65.36;99913.91;5118721;27;45482;-71
2024/01/06 01:09:58;;;;;;;;;0.00;0.00;;;;;9.68;65.57;99957.94;5118509;27;45546;-70
2024/01/06 01:12:24;;;;;;;;;0.00;0.00;;;;;9.69;65.30;99950.16;5118632;27;45458;-71
2024/01/06 01:14:50;;;;;;;;;0.00;0.00;;;;;9.70;65.56;99949.28;5118267;27;45502;-71
2024/01/06 01:17:16;;;;;;;;;0.00;0.00;;;;;9.73;65.61;99945.91;5118409;27;45788;-71
2024/01/06 01:19:42;;;;;;;;;0.00;0.00;;;;;9.74;65.79;99939.81;5118263;27;45299;-71
2024/01/06 01:22:07;;;;;;;;;0.00;0.00;;;;;9.53;65.47;99917.63;5118107;27;45319;-71
2024/01/06 01:24:33;;;;;;;;;0.00;0.00;;;;;9.75;65.78;99952.03;5117676;27;46035;-71
2024/01/06 01:26:59;;;;;;;;;0.00;0.00;;;;;9.71;65.77;99940.66;5117908;27;45506;-71
2024/01/06 01:29:24;;;;;;;;;0.00;0.00;;;;;9.76;65.63;99944.22;5117950;27;45489;-70
2024/01/06 01:31:50;;;;;;;;;0.00;0.00;;;;;9.80;65.79;99949.53;5116509;27;45360;-71
2024/01/06 01:34:15;;;;;;;;;0.00;0.00;;;;;9.80;65.48;99953.00;5117707;27;45924;-71
2024/01/06 01:36:41;;;;;;;;;0.00;0.00;;;;;9.80;65.62;99958.22;5117345;27;45474;-71
2024/01/06 01:39:07;;;;;;;;;0.00;0.00;;;;;9.81;65.69;99966.94;5117578;27;45446;-71
2024/01/06 01:41:32;;;;;;;;;0.00;0.00;;;;;9.50;65.36;99914.91;5117102;27;45444;-71
2024/01/06 01:43:58;;;;;;;;;0.00;0.00;;;;;9.81;65.60;99979.97;5117149;27;46141;-71
2024/01/06 01:46:27;;;;;;;;;0.00;0.00;;;;;9.77;65.50;99955.56;5118062;27;45184;-71
2024/01/06 01:48:55;;;;;;;;;0.00;0.00;;;;;9.84;65.56;99956.56;5118167;27;45484;-71
2024/01/06 01:51:21;;;;;;;;;0.00;0.00;;;;;9.84;65.39;99961.78;5118679;27;45458;-71
2024/01/06 01:53:49;;;;;;;;;0.00;0.00;;;;;9.85;65.37;99958.34;5117987;27;45289;-71
2024/01/06 01:56:16;;;;;;;;;0.00;0.00;;;;;9.86;65.50;99958.38;5118409;27;45488;-71
2024/01/06 01:58:42;;;;;;;;;0.00;0.00;;;;;9.69;65.21;99931.91;5118773;27;45830;-71
2024/01/06 02:01:08;;;;;;;;;0.00;0.00;;;;;9.88;65.60;99955.81;5118670;27;45414;-71
2024/01/06 02:03:35;;;;;;;;;0.00;0.00;;;;;9.89;65.47;99949.75;5118237;27;45550;-71
2024/01/06 02:06:01;;;;;;;;;0.00;0.00;;;;;9.69;65.34;99911.03;5118343;27;45261;-71
2024/01/06 02:08:27;;;;;;;;;0.00;0.00;;;;;9.90;65.60;99946.28;5118527;27;45391;-71
2024/01/06 02:10:56;;;;;;;;;0.00;0.00;;;;;9.91;64.99;99948.06;5118684;27;45476;-71
2024/01/06 02:13:23;;;;;;;;;0.00;0.00;;;;;9.89;65.10;99957.56;5118107;27;46119;-71
2024/01/06 02:15:49;;;;;;;;;0.00;0.00;;;;;9.80;65.28;99941.69;5117846;27;45328;-71
2024/01/06 02:18:14;;;;;;;;;0.00;0.00;;;;;9.54;65.24;99897.63;5117000;27;45336;-71
2024/01/06 02:20:44;;;;;;;;;0.00;0.00;;;;;9.85;65.37;99955.75;5118410;27;45300;-71
2024/01/06 02:23:10;;;;;;;;;0.00;0.00;;;;;9.76;65.46;99945.97;5118055;27;45521;-71
2024/01/06 02:25:35;;;;;;;;;0.00;0.00;;;;;9.83;65.29;99953.09;5118603;27;45438;-71
2024/01/06 02:28:01;;;;;;;;;0.00;0.00;;;;;9.93;65.99;99962.91;5116992;27;45243;-71
2024/01/06 02:30:27;;;;;;;;;0.00;0.00;;;;;9.94;65.83;99967.25;5118599;27;45163;-71
2024/01/06 02:32:52;;;;;;;;;0.00;0.00;;;;;9.90;65.80;99954.97;5117909;27;45477;-71
2024/01/06 02:35:18;;;;;;;;;0.00;0.00;;;;;9.98;65.63;99972.56;5120512;27;45461;-71
2024/01/06 02:37:44;;;;;;;;;0.00;0.00;;;;;10.00;65.85;99976.06;5120718;27;45428;-71
2024/01/06 02:40:10;;;;;;;;;0.00;0.00;;;;;9.99;65.75;99962.16;5122017;27;45316;-71
2024/01/06 02:42:36;;;;;;;;;0.00;0.00;;;;;9.98;65.91;99970.81;5121660;27;45458;-71
2024/01/06 02:45:02;;;;;;;;;0.00;0.00;;;;;10.01;65.94;99970.00;5121274;27;45442;-71
2024/01/06 02:47:27;;;;;;;;;0.00;0.00;;;;;10.00;66.91;99974.34;5121469;27;45512;-71
2024/01/06 02:49:53;;;;;;;;;0.00;0.00;;;;;9.96;66.79;99985.56;5121460;27;46193;-71
2024/01/06 02:52:18;;;;;;;;;0.00;0.00;;;;;9.72;66.38;99933.69;5121473;27;45347;-71
2024/01/06 02:54:44;;;;;;;;;0.00;0.00;;;;;10.02;66.25;99969.16;5121548;27;45357;-71
2024/01/06 02:57:09;;;;;;;;;0.00;0.00;;;;;10.02;66.59;99969.16;5121878;27;45505;-71
2024/01/06 02:59:35;;;;;;;;;0.00;0.00;;;;;10.04;66.21;99973.56;5121849;27;45287;-71
2024/01/06 03:02:01;;;;;;;;;0.00;0.00;;;;;10.06;66.09;99992.75;5121206;27;45985;-71
2024/01/06 03:04:27;;;;;;;;;0.00;0.00;;;;;9.95;66.73;99989.91;5121288;27;45425;-71
2024/01/06 03:06:53;;;;;;;;;0.00;0.00;;;;;10.11;66.67;100008.53;5121240;27;45437;-71
2024/01/06 03:09:21;;;;;;;;;0.00;0.00;;;;;10.19;66.63;100019.16;5121569;27;45403;-71
2024/01/06 03:11:46;;;;;;;;;0.00;0.00;;;;;9.96;66.41;99969.91;5120956;27;46458;-71
2024/01/06 03:14:12;;;;;;;;;0.00;0.00;;;;;10.23;66.40;100016.63;5120955;27;45566;-71
2024/01/06 03:16:38;;;;;;;;;0.00;0.00;;;;;10.22;66.68;100009.63;5121587;27;45355;-71
2024/01/06 03:19:03;;;;;;;;;0.00;0.00;;;;;10.28;66.83;100014.13;5121269;27;45635;-71
2024/01/06 03:21:29;;;;;;;;;0.00;0.00;;;;;10.27;66.46;100010.63;5120940;27;45312;-71
2024/01/06 03:23:55;;;;;;;;;0.00;0.00;;;;;10.30;66.75;100028.13;5120842;27;45226;-71
2024/01/06 03:26:21;;;;;;;;;0.00;0.00;;;;;10.29;66.57;100022.00;5120898;27;45505;-71
2024/01/06 03:28:49;;;;;;;;;0.00;0.00;;;;;10.19;66.78;100008.72;5121076;27;45507;-71
2024/01/06 03:31:15;;;;;;;;;0.00;0.00;;;;;10.08;66.49;100001.50;5120688;27;45632;-71
2024/01/06 03:33:41;;;;;;;;;0.00;0.00;;;;;10.17;66.68;100006.06;5120740;27;45291;-71
2024/01/06 03:36:07;;;;;;;;;0.00;0.00;;;;;10.31;66.88;100029.91;5120719;27;45292;-71
2024/01/06 03:38:33;;;;;;;;;0.00;0.00;;;;;10.19;66.89;100013.94;5121219;27;45577;-71
2024/01/06 03:40:59;;;;;;;;;0.00;0.00;;;;;10.29;67.05;100028.97;5120501;27;45451;-71
2024/01/06 03:43:24;;;;;;;;;0.00;0.00;;;;;10.10;67.10;99999.78;5120419;27;45445;-71
2024/01/06 03:45:50;;;;;;;;;0.00;0.00;;;;;10.26;66.95;100027.13;5119930;27;45427;-71
2024/01/06 03:48:16;;;;;;;;;0.00;0.00;;;;;10.25;67.28;100029.72;5119391;27;45414;-71
2024/01/06 03:50:41;;;;;;;;;0.00;0.00;;;;;10.00;67.30;99987.38;5120622;27;45480;-71
2024/01/06 03:53:07;;;;;;;;;0.00;0.00;;;;;9.98;67.33;100002.13;5120430;27;45217;-71
2024/01/06 03:55:33;;;;;;;;;0.00;0.00;;;;;10.07;67.49;100014.53;5119119;27;45444;-71
2024/01/06 03:57:58;;;;;;;;;0.00;0.00;;;;;9.89;68.24;100007.16;5119383;27;45379;-71
2024/01/06 04:00:25;;;;;;;;;0.00;0.00;;;;;10.03;67.71;100018.78;5120265;27;45929;-71
2024/01/06 04:02:51;;;;;;;;;0.00;0.00;;;;;10.08;67.73;100032.81;5120279;27;45430;-71
2024/01/06 04:05:17;;;;;;;;;0.00;0.00;;;;;10.11;68.06;100025.06;5119034;27;45274;-71
2024/01/06 04:07:42;;;;;;;;;2.75;2.00;;;;;10.15;67.75;100029.50;5120852;27;45348;-71
2024/01/06 04:10:08;;;;;;;;;0.75;0.00;;;;;10.18;67.71;100027.81;5120137;27;45668;-71
2024/01/06 04:12:34;;;;;;;;;0.00;0.00;;;;;10.16;67.67;100018.22;5120220;27;45498;-71
2024/01/06 04:14:59;;;;;;;;;0.00;0.00;;;;;10.22;67.38;100025.31;5120126;27;45280;-71
2024/01/06 04:17:26;;;;;;;;;0.00;0.00;;;;;10.10;67.28;99997.19;5120261;27;45476;-71
2024/01/06 04:19:52;;;;;;;;;0.00;0.00;;;;;10.24;67.27;100023.59;5119925;27;45486;-71
2024/01/06 04:22:19;;;;;;;;;0.00;0.00;;;;;10.22;67.41;100021.81;5119710;27;45459;-71
2024/01/06 04:24:44;;;;;;;;;0.00;0.00;;;;;10.21;67.38;100027.91;5120371;27;45328;-71
2024/01/06 04:27:10;;;;;;;;;0.00;0.00;;;;;10.19;67.37;100013.94;5120455;27;45451;-71
2024/01/06 04:29:36;;;;;;;;;0.00;0.00;;;;;10.04;67.27;99989.22;5119878;27;45525;-71
2024/01/06 04:32:01;;;;;;;;;0.00;0.00;;;;;10.24;67.33;100028.81;5118504;27;45509;-71
2024/01/06 04:34:27;;;;;;;;;0.00;0.00;;;;;10.23;67.30;100034.03;5119919;27;45271;-71
2024/01/06 04:36:53;;;;;;;;;0.00;0.00;;;;;10.23;67.48;100031.44;5120005;27;45586;-71
2024/01/06 04:39:18;;;;;;;;;0.00;0.00;;;;;10.08;67.37;100017.16;5119610;27;45888;-71
2024/01/06 04:41:44;;;;;;;;;0.00;0.00;;;;;10.00;67.62;100008.25;5120025;27;45341;-71
2024/01/06 04:44:09;;;;;;;;;0.00;0.00;;;;;10.05;67.55;100030.16;5119769;27;45284;-71
2024/01/06 04:46:35;;;;;;;;;0.00;0.00;;;;;9.99;67.96;100032.59;5119900;27;45712;-71
2024/01/06 04:49:01;;;;;;;;;0.00;0.00;;;;;9.94;68.30;100044.66;5119524;27;45452;-71
2024/01/06 04:51:27;;;;;;;;;0.00;0.00;;;;;9.88;68.48;100048.00;5119671;27;45371;-71
2024/01/06 04:53:52;;;;;;;;;0.00;0.00;;;;;9.79;68.63;100024.31;5119773;27;45371;-71
2024/01/06 04:56:18;;;;;;;;;0.00;0.00;;;;;9.89;68.59;100041.94;5119719;27;45472;-71
2024/01/06 04:58:43;;;;;;;;;0.00;0.00;;;;;9.74;68.49;100005.91;5116991;27;46214;-71
2024/01/06 05:01:09;;;;;;;;;0.00;0.00;;;;;9.70;68.38;100004.06;5119304;27;45454;-71
2024/01/06 05:03:35;;;;;;;;;0.00;0.00;;;;;9.89;68.43;100021.06;5119459;27;45395;-71
2024/01/06 05:06:00;;;;;;;;;2.75;2.00;;;;;9.95;68.17;100068.19;5119515;27;45383;-71
2024/01/06 05:08:26;;;;;;;;;2.00;2.00;;;;;9.94;68.51;100097.72;5119170;27;46084;-71
2024/01/06 05:10:53;;;;;;;;;0.00;0.00;;;;;9.89;68.09;100077.59;5119202;27;45371;-71
2024/01/06 05:13:19;;;;;;;;;0.00;0.00;;;;;9.76;67.17;100051.16;5119175;27;45477;-71
2024/01/06 05:15:44;;;;;;;;;0.00;0.00;;;;;9.73;67.15;100042.41;5118135;27;45501;-71
2024/01/06 05:18:10;;;;;;;;;0.00;0.00;;;;;9.82;66.90;100044.34;5117636;27;45424;-71
2024/01/06 05:20:35;;;;;;;;;0.00;0.00;;;;;10.04;66.64;100087.50;5119039;27;45220;-71
2024/01/06 05:23:01;;;;;;;;;0.00;0.00;;;;;9.93;66.46;100069.88;5118953;27;45531;-71
2024/01/06 05:25:26;;;;;;;;;0.00;0.00;;;;;9.96;66.09;100063.84;5119351;27;45349;-71
2024/01/06 05:27:52;;;;;;;;;0.00;0.00;;;;;10.13;65.82;100103.41;5118863;27;45579;-71
2024/01/06 05:30:18;;;;;;;;;0.00;0.00;;;;;10.18;66.31;100095.69;5119230;27;45547;-71
2024/01/06 05:32:43;;;;;;;;;0.00;0.00;;;;;9.96;66.39;100049.06;5119007;27;45263;-71
2024/01/06 05:35:09;;;;;;;;;0.00;0.00;;;;;10.15;66.37;100073.88;5119242;27;45896;-71
2024/01/06 05:37:35;;;;;;;;;0.00;0.00;;;;;10.23;66.24;100088.84;5118646;27;45982;-71
2024/01/06 05:40:01;;;;;;;;;0.00;0.00;;;;;10.03;66.65;100050.09;5118698;27;45540;-71
2024/01/06 05:42:26;;;;;;;;;0.00;0.00;;;;;10.15;66.66;100080.84;5118706;27;45356;-71
2024/01/06 05:44:52;;;;;;;;;0.00;0.00;;;;;10.13;66.48;100077.31;5118961;27;45650;-71
2024/01/06 05:47:18;;;;;;;;;0.00;0.00;;;;;10.06;66.65;100078.88;5119093;27;45359;-71
2024/01/06 05:49:44;;;;;;;;;0.00;0.00;;;;;10.03;66.45;100084.03;5118556;27;45474;-71
2024/01/06 05:52:10;;;;;;;;;0.00;0.00;;;;;10.01;66.37;100082.19;5118903;27;45426;-71
2024/01/06 05:54:35;;;;;;;;;0.00;0.00;;;;;9.92;66.59;100067.22;5117420;27;45459;-71
2024/01/06 05:57:01;;;;;;;;;0.00;0.00;;;;;9.99;66.66;100069.16;5118243;27;46133;-71
2024/01/06 05:59:26;;;;;;;;;0.00;0.00;;;;;9.96;67.01;100088.19;5118375;27;45551;-71
2024/01/06 06:01:52;;;;;;;;;0.00;0.00;;;;;9.94;66.80;100069.00;5117209;27;45386;-71
2024/01/06 06:04:18;;;;;;;;;0.00;0.00;;;;;9.80;66.37;100044.31;5119271;27;45245;-71
2024/01/06 06:06:44;;;;;;;;;0.00;0.00;;;;;9.57;66.48;100022.88;5117222;27;45496;-78
2024/01/06 06:09:10;;;;;;;;;0.00;0.00;;;;;9.58;66.49;100016.81;5118287;27;45375;-77
2024/01/06 06:11:36;;;;;;;;;0.00;0.00;;;;;9.92;66.57;100064.59;5121025;27;45576;-77
2024/01/06 06:14:05;;;;;;;;;0.00;0.00;;;;;9.85;66.57;100071.41;5121341;27;45530;-71
2024/01/06 06:16:30;;;;;;;;;1.00;0.00;;;;;9.74;66.90;100051.97;5120864;27;46074;-78
2024/01/06 06:18:56;;;;;;;;;0.00;0.00;;;;;9.66;66.73;100038.75;5119505;27;45356;-78
2024/01/06 06:21:22;;;;;;;;;0.00;0.00;;;;;9.60;67.09;100055.97;5121259;27;45456;-71
2024/01/06 06:23:47;;;;;;;;;0.00;0.00;;;;;9.58;66.86;100073.31;5121543;27;45462;-71
2024/01/06 06:26:13;;;;;;;;;0.00;0.00;;;;;9.68;66.71;100098.78;5120758;27;45950;-71
2024/01/06 06:28:39;;;;;;;;;0.00;0.00;;;;;9.63;66.97;100100.38;5120803;27;45511;-72
2024/01/06 06:31:04;;;;;;;;;0.00;0.00;;;;;9.49;66.95;100055.66;5121062;27;45250;-71
2024/01/06 06:33:30;;;;;;;;;0.00;0.00;;;;;9.68;66.84;100094.44;5121122;27;45357;-70
2024/01/06 06:35:56;;;;;;;;;5.50;3.75;;;;;9.55;66.77;100084.53;5120561;27;46035;-79
2024/01/06 06:38:22;;;;;;;;;7.75;7.25;;;;;9.71;67.15;100119.75;5119510;27;45421;-72
2024/01/06 06:40:47;;;;;;;;;3.25;2.00;;;;;9.74;67.10;100146.75;5121094;27;45944;-77
2024/01/06 06:43:15;;;;;;;;;0.00;0.00;;;;;9.71;67.34;100132.78;5120952;27;45502;-71
2024/01/06 06:45:40;;;;;;;;;0.00;0.00;;;;;9.79;67.01;100136.47;5120531;27;45573;-70
2024/01/06 06:48:06;;;;;;;;;0.00;0.00;;;;;9.76;67.20;100165.06;5120657;27;45322;-71
2024/01/06 06:50:32;;;;;;;;;0.00;0.00;;;;;9.39;67.44;100131.88;5120730;27;45310;-71
2024/01/06 06:52:59;;;;;;;;;2.00;1.75;;;;;9.73;67.46;100165.88;5121015;27;45429;-70
2024/01/06 06:55:24;;;;;;;;;0.00;0.00;;;;;9.70;67.36;100178.81;5120175;27;45445;-70
2024/01/06 06:57:50;;;;;;;;;1.00;1.00;;;;;9.67;68.13;100194.41;5120756;27;45460;-71
2024/01/06 07:00:17;;;;;;;;;1.25;1.00;;;;;9.67;68.19;100186.56;5120580;27;45479;-71
2024/01/06 07:02:42;;;;;;;;;0.00;0.00;;;;;9.74;68.01;100174.56;5120631;27;45580;-70
2024/01/06 07:05:08;;;;;;;;;1.00;1.00;;;;;9.67;67.85;100159.59;5118848;27;45658;-70
2024/01/06 07:07:34;;;;;;;;;0.75;0.00;;;;;9.42;68.41;100150.22;5120595;27;46079;-71
2024/01/06 07:10:04;;;;;;;;;0.75;0.00;;;;;9.64;68.36;100188.22;5120430;27;45372;-70
2024/01/06 07:12:30;;;;;;;;;0.00;0.00;;;;;9.72;68.15;100208.44;5118244;27;45498;-71
2024/01/06 07:14:58;;;;;;;;;0.25;0.00;;;;;9.44;68.45;100172.00;5120131;27;46078;-71
2024/01/06 07:17:23;;;;;;;;;0.00;0.00;;;;;9.67;68.25;100220.47;5120275;27;45426;-71
2024/01/06 07:19:49;;;;;;;;;0.00;0.00;;;;;9.56;67.91;100216.69;5118665;27;45357;-71
2024/01/06 07:22:16;;;;;;;;;0.00;0.00;;;;;9.51;67.61;100220.88;5119035;27;45419;-71
2024/01/06 07:24:42;;;;;;;;;0.00;0.00;;;;;9.42;67.53;100218.00;5120635;27;46185;-71
2024/01/06 07:27:07;;;;;;;;;0.00;0.00;;;;;9.40;67.83;100220.56;5120686;27;45496;-71
2024/01/06 07:29:33;;;;;;;;;0.50;0.00;;;;;9.42;67.50;100220.63;5120747;27;45600;-71
2024/01/06 07:31:59;;;;;;;;;0.00;0.00;;;;;9.32;67.24;100216.84;5120878;27;45427;-71
2024/01/06 07:34:25;;;;;;;;;1.50;1.00;;;;;9.30;67.44;100232.44;5120558;27;46005;-71
2024/01/06 07:36:51;;;;;;;;;1.00;1.00;;;;;9.33;67.35;100244.66;5121092;27;45588;-71
2024/01/06 07:39:16;;;;;;;;;1.00;1.00;;;;;9.43;67.70;100262.38;5120711;27;45256;-71
2024/01/06 07:41:42;;;;;;;;;1.00;0.75;;;;;9.32;67.78;100241.19;5120968;27;45302;-71
2024/01/06 07:44:08;;;;;;;;;0.00;0.00;;;;;9.49;68.12;100277.28;5120575;27;45541;-71
2024/01/06 07:46:35;;;;;;;;;0.00;0.00;;;;;9.31;68.26;100242.03;5120471;27;45511;-71
2024/01/06 07:49:00;;;;;;;;;0.00;0.00;;;;;9.41;68.08;100276.19;5120683;27;45494;-71
2024/01/06 07:51:26;;;;;;;;;0.00;0.00;;;;;9.68;68.17;100325.69;5120995;27;45267;-71
2024/01/06 07:53:51;;;;;;;;;1.75;1.75;;;;;9.71;68.61;100328.41;5120432;27;46043;-71
2024/01/06 07:56:18;;;;;;;;;1.00;1.00;;;;;9.75;68.56;100338.97;5120151;27;45223;-71
2024/01/06 07:58:43;;;;;;;;;1.00;0.00;;;;;9.79;68.67;100341.66;5120299;27;46418;-71
2024/01/06 08:01:09;;;;;;;;;1.00;0.00;;;;;9.80;68.83;100343.44;5120288;27;45388;-71
2024/01/06 08:03:34;;;;;;;;;6.00;6.00;;;;;9.81;69.13;100345.19;5119724;27;46131;-71
2024/01/06 08:06:00;;;;;;;;;0.50;0.00;;;;;9.70;68.92;100321.41;5119941;27;45331;-71
2024/01/06 08:08:26;;;;;;;;;0.00;0.00;;;;;9.90;68.64;100363.75;5120632;27;45316;-70
2024/01/06 08:10:52;;;;;;;;;0.00;0.00;;;;;9.93;68.88;100371.66;5120347;27;45439;-71
2024/01/06 08:13:17;;;;;;;;;0.00;0.00;;;;;9.95;68.58;100372.59;5120082;27;46097;-71
2024/01/06 08:15:43;;;;;;;;;5.00;4.00;;;;;9.95;69.04;100404.78;5120168;27;45427;-71
2024/01/06 08:18:08;;;;;;;;;6.50;6.50;;;;;9.94;68.76;100413.44;5120050;27;45560;-71
2024/01/06 08:20:34;;;;;;;;;6.25;4.00;;;;;9.67;68.99;100378.69;5120308;27;45194;-71
2024/01/06 08:23:00;;;;;;;;;48.75;39.50;;;;;9.92;69.02;100414.25;5119621;27;46134;-71
2024/01/06 08:25:25;;;;;;;;;0.00;0.00;;;;;9.83;67.24;100411.34;5120105;27;45267;-71
2024/01/06 08:27:51;;;;;;;;;0.00;0.00;;;;;9.83;67.75;100411.34;5119234;27;45284;-82
2024/01/06 08:30:16;;;;;;;;;0.75;0.75;;;;;9.85;67.22;100413.19;5118952;27;45560;-72
2024/01/06 08:32:42;;;;;;;;;0.00;0.00;;;;;9.87;66.99;100424.56;5118567;27;45402;-71
2024/01/06 08:35:08;;;;;;;;;0.00;0.00;;;;;9.78;66.98;100412.94;5118852;27;45466;-71
2024/01/06 08:37:33;;;;;;;;;3.00;2.25;;;;;9.97;66.75;100446.59;5119074;27;45869;-71
2024/01/06 08:39:59;;;;;;;;;0.00;0.00;;;;;9.81;66.67;100431.28;5119279;27;45565;-71
2024/01/06 08:42:25;;;;;;;;;0.00;0.00;;;;;9.96;66.79;100452.63;5118719;27;46113;-70
2024/01/06 08:44:51;;;;;;;;;0.75;0.00;;;;;9.99;66.33;100457.06;5115771;27;45363;-72
2024/01/06 08:47:17;;;;;;;;;0.00;0.00;;;;;9.78;66.12;100412.94;5118386;27;45502;-71
2024/01/06 08:49:43;;;;;;;;;0.00;0.00;;;;;10.01;66.57;100471.94;5119123;27;45397;-71
2024/01/06 08:52:08;;;;;;;;;1.00;1.00;;;;;9.89;66.62;100445.47;5118365;27;45433;-71
2024/01/06 08:54:35;;;;;;;;;3.00;2.00;;;;;10.09;66.18;100477.41;5118326;27;45223;-71
2024/01/06 08:57:01;;;;;;;;;16.25;14.00;;;;;9.82;66.04;100440.91;5118657;27;45255;-76
2024/01/06 08:59:27;;;;;;;;;7.50;7.50;;;;;10.00;66.51;100467.56;5118855;27;45435;-71
2024/01/06 09:01:52;;;;;;;;;11.00;10.00;;;;;10.05;66.59;100481.63;5117949;27;45566;-71
2024/01/06 09:04:18;;;;;;;;;9.00;9.00;;;;;10.07;65.82;100479.97;5115459;27;45316;-71
2024/01/06 09:06:46;;;;;;;;;44.00;40.00;;;;;9.93;66.23;100455.16;5118367;27;45339;-83
2024/01/06 09:09:12;;;;;;;;;72.25;57.50;;;;;10.12;66.21;100488.81;5118675;27;45422;-71
2024/01/06 09:11:37;;;;;;;;;56.50;47.50;;;;;10.13;66.14;100487.97;5117957;27;45884;-71
2024/01/06 09:14:06;;;;;;;;;62.75;50.00;;;;;10.17;65.94;100496.78;5118124;27;45999;-73
2024/01/06 09:16:31;;;;;;;;;59.00;46.25;;;;;10.26;66.10;100511.84;5118007;27;45439;-71
2024/01/06 09:18:57;;;;;;;;;66.75;53.00;;;;;10.28;65.93;100504.94;5118574;27;45569;-78
2024/01/06 09:21:23;;;;;;;;;55.75;44.50;;;;;10.30;66.04;100498.06;5117923;27;45934;-72
2024/01/06 09:23:48;;;;;;;;;60.25;47.00;;;;;10.23;66.09;100486.53;5117940;27;45388;-76
2024/01/06 09:26:16;;;;;;;;;36.25;34.25;;;;;10.33;66.06;100495.56;5116662;27;45490;-82
2024/01/06 09:28:41;;;;;;;;;57.50;48.25;;;;;10.36;65.74;100508.69;5118267;27;45585;-72
2024/01/06 09:31:07;;;;;;;;;50.75;41.50;;;;;10.35;65.87;100525.22;5116910;27;45921;-72
2024/01/06 09:33:33;;;;;;;;;33.50;31.00;;;;;10.32;65.91;100531.22;5116279;27;45490;-72
2024/01/06 09:36:00;;;;;;;;;12.00;9.75;;;;;10.31;65.43;100552.09;5118558;27;45432;-71
2024/01/06 09:38:25;;;;;;;;;6.75;6.00;;;;;10.09;65.95;100520.03;5118079;27;45200;-72
2024/01/06 09:40:53;;;;;;;;;0.50;0.50;;;;;10.12;63.43;100540.13;5117886;27;45961;-71
2024/01/06 09:43:18;;;;;;;;;0.00;0.00;;;;;9.83;63.55;100490.53;5118222;27;45376;-71
2024/01/06 09:45:53;;;;;;;;;7.50;4.00;;;;;10.16;64.92;100549.81;5118266;27;45766;-72
2024/01/06 09:48:22;;;;;;;;;1.25;0.75;;;;;10.09;64.64;100525.28;5118629;27;45228;-72
2024/01/06 09:50:53;;;;;;;;;29.50;27.25;;;;;9.98;64.69;100494.44;5118293;27;46121;-71
2024/01/06 09:53:19;;;;;;;;;51.50;42.75;;;;;10.08;65.04;100494.75;5117394;27;45461;-73
2024/01/06 09:55:45;;;;;;;;;38.00;35.25;;;;;10.41;64.97;100543.69;5117927;27;45493;-71
2024/01/06 09:58:10;;;;;;;;;14.75;14.75;;;;;10.54;65.05;100544.94;5118559;27;45446;-71
2024/01/06 10:00:36;;;;;;;;;17.75;15.75;;;;;10.63;65.23;100560.00;5117539;27;45950;-72
2024/01/06 10:03:02;;;;;;;;;27.25;25.25;;;;;10.60;64.93;100550.34;5118186;27;45353;-74
2024/01/06 10:05:28;;;;;;;;;20.50;19.25;;;;;10.71;64.83;100558.50;5117902;27;45244;-75
2024/01/06 10:07:53;;;;;;;;;18.75;15.75;;;;;10.77;64.13;100563.91;5118328;27;45522;-72
2024/01/06 10:10:19;;;;;;;;;13.00;13.00;;;;;10.86;64.74;100568.50;5117874;27;46096;-74
2024/01/06 10:12:46;;;;;;;;;3.50;3.50;;;;;10.91;64.70;100567.81;5117550;27;45357;-71
2024/01/06 10:15:12;;;;;;;;;5.75;5.75;;;;;11.05;63.64;100581.28;5118177;27;46125;-72
2024/01/06 10:17:41;;;;;;;;;62.00;51.50;;;;;11.18;64.09;100564.22;5116225;27;45226;-72
2024/01/06 10:20:17;;;;;;;;;36.75;34.25;;;;;11.31;64.16;100571.53;5117134;27;46200;-71
2024/01/06 10:22:45;;;;;;;;;38.50;31.50;;;;;11.35;62.98;100565.53;5115572;27;45258;-71
2024/01/06 10:25:12;;;;;;;;;28.00;26.25;;;;;11.22;63.10;100545.16;5117237;27;45257;-72
2024/01/06 10:27:39;;;;;;;;;8.25;7.00;;;;;11.22;62.97;100558.22;5117379;27;45534;-71
2024/01/06 10:30:06;;;;;;;;;8.50;8.00;;;;;11.14;63.08;100558.03;5117993;27;46580;-72
2024/01/06 10:32:32;;;;;;;;;13.25;11.25;;;;;11.10;63.70;100557.88;5117647;27;45411;-72
2024/01/06 10:35:00;;;;;;;;;41.25;36.50;;;;;11.07;63.46;100553.44;5117620;27;45521;-72
2024/01/06 10:37:27;;;;;;;;;12.00;11.50;;;;;11.03;64.09;100551.59;5117175;27;45334;-73
2024/01/06 10:40:10;;;;;;;;;4.00;4.00;;;;;10.98;64.48;100552.28;5116797;27;46117;-73
2024/01/06 10:42:39;;;;;;;;;6.75;5.00;;;;;11.03;64.61;100545.50;5114484;27;45508;-72
2024/01/06 10:45:08;;;;;;;;;3.00;2.00;;;;;11.06;64.42;100538.63;5116055;27;45492;-73
2024/01/06 10:47:35;;;;;;;;;10.00;9.50;;;;;11.22;64.22;100536.41;5113228;27;45547;-73
2024/01/06 10:50:00;;;;;;;;;8.00;7.50;;;;;11.35;63.76;100535.91;5116651;27;46702;-72
2024/01/06 10:52:28;;;;;;;;;7.00;6.50;;;;;11.47;63.96;100530.97;5117283;27;45892;-72
2024/01/06 10:54:57;;;;;;;;;8.75;8.00;;;;;11.39;64.06;100492.41;5118260;27;45375;-71
2024/01/06 10:57:24;;;;;;;;;39.50;33.00;;;;;11.67;62.76;100518.41;5121185;27;45358;-71
2024/01/06 10:59:52;;;;;;;;;38.75;33.50;;;;;11.68;62.69;100511.47;5121024;27;45230;-71
2024/01/06 11:02:18;;;;;;;;;16.00;15.00;;;;;11.69;62.55;100516.72;5120510;27;45411;-71
2024/01/06 11:04:48;;;;;;;;;17.25;14.00;;;;;11.74;62.83;100522.09;5120923;27;45455;-71
2024/01/06 11:07:16;;;;;;;;;1.00;1.00;;;;;11.65;62.82;100498.28;5121212;27;45389;-72
2024/01/06 11:10:07;;;;;;;;;4.50;4.00;;;;;12.05;62.66;100528.94;5121048;27;46306;-71
2024/01/06 11:12:33;;;;;;;;;8.00;7.50;;;;;12.10;62.19;100503.78;5116903;27;45578;-71
2024/01/06 11:14:58;;;;;;;;;4.75;4.00;;;;;12.17;61.79;100522.25;5119150;27;45491;-71
2024/01/06 11:17:58;;;;;;;;;11.25;8.75;;;;;12.11;61.68;100521.25;5120861;27;45316;-71
2024/01/06 11:20:27;;;;;;;;;28.25;26.25;;;;;12.00;60.72;100519.25;5120506;27;46218;-72
2024/01/06 11:22:53;;;;;;;;;15.00;13.00;;;;;11.82;61.00;100524.91;5120461;27;45429;-72
2024/01/06 11:25:22;;;;;;;;;12.00;9.75;;;;;11.57;60.65;100508.56;5120728;27;45324;-71